sensor_id;sensor_type;location;lat;lon;timestamp;P1;durP1;ratioP1;P2;durP2;ratioP2
30458;SDS011;17254;50.976;7.034;2022-09-25T00:00:06;50.15;;;32.55;;
30458;SDS011;17254;50.976;7.034;2022-09-25T00:00:38;49.65;;;32.42;;
30458;SDS011;17254;50.976;7.034;2022-09-25T00:01:09;47.33;;;31.25;;
30458;SDS011;17254;50.976;7.034;2022-09-25T00:01:42;55.40;;;34.13;;
30458;SDS011;17254;50.976;7.034;2022-09-25T00:02:13;44.47;;;31.70;;
30458;SDS011;17254;50.976;7.034;2022-09-25T00:02:44;47.17;;;32.35;;
30458;SDS011;17254;50.976;7.034;2022-09-25T00:03:16;47.08;;;33.30;;
30458;SDS011;17254;50.976;7.034;2022-09-25T00:03:48;48.88;;;33.40;;
30458;SDS011;17254;50.976;7.034;2022-09-25T00:04:19;48.72;;;32.10;;
30458;SDS011;17254;50.976;7.034;2022-09-25T00:04:51;48.50;;;31.35;;
30458;SDS011;17254;50.976;7.034;2022-09-25T00:05:22;45.72;;;31.17;;
30458;SDS011;17254;50.976;7.034;2022-09-25T00:05:59;46.30;;;30.95;;
30458;SDS011;17254;50.976;7.034;2022-09-25T00:06:32;52.15;;;32.05;;
30458;SDS011;17254;50.976;7.034;2022-09-25T00:07:03;48.47;;;30.95;;
30458;SDS011;17254;50.976;7.034;2022-09-25T00:07:34;46.58;;;31.80;;
30458;SDS011;17254;50.976;7.034;2022-09-25T00:08:08;43.95;;;32.22;;
30458;SDS011;17254;50.976;7.034;2022-09-25T00:08:39;48.95;;;31.48;;
30458;SDS011;17254;50.976;7.034;2022-09-25T00:09:10;44.63;;;30.48;;
30458;SDS011;17254;50.976;7.034;2022-09-25T00:09:44;53.33;;;32.40;;
30458;SDS011;17254;50.976;7.034;2022-09-25T00:10:14;50.65;;;32.17;;
30458;SDS011;17254;50.976;7.034;2022-09-25T00:10:47;45.17;;;31.02;;
30458;SDS011;17254;50.976;7.034;2022-09-25T00:11:19;52.35;;;35.15;;
30458;SDS011;17254;50.976;7.034;2022-09-25T00:11:53;46.65;;;33.72;;
30458;SDS011;17254;50.976;7.034;2022-09-25T00:12:24;47.72;;;31.35;;
30458;SDS011;17254;50.976;7.034;2022-09-25T00:12:55;48.13;;;33.00;;
30458;SDS011;17254;50.976;7.034;2022-09-25T00:13:27;53.63;;;35.28;;
30458;SDS011;17254;50.976;7.034;2022-09-25T00:13:58;47.38;;;33.22;;
30458;SDS011;17254;50.976;7.034;2022-09-25T00:14:31;51.90;;;31.73;;
30458;SDS011;17254;50.976;7.034;2022-09-25T00:15:03;51.70;;;33.83;;
30458;SDS011;17254;50.976;7.034;2022-09-25T00:15:36;51.97;;;34.47;;
30458;SDS011;17254;50.976;7.034;2022-09-25T00:16:08;51.05;;;35.13;;
30458;SDS011;17254;50.976;7.034;2022-09-25T00:16:42;52.17;;;33.60;;
30458;SDS011;17254;50.976;7.034;2022-09-25T00:17:13;52.30;;;34.42;;
30458;SDS011;17254;50.976;7.034;2022-09-25T00:17:45;50.47;;;34.15;;
30458;SDS011;17254;50.976;7.034;2022-09-25T00:18:16;48.47;;;32.92;;
30458;SDS011;17254;50.976;7.034;2022-09-25T00:19:09;53.42;;;34.33;;
30458;SDS011;17254;50.976;7.034;2022-09-25T00:20:07;52.38;;;36.05;;
30458;SDS011;17254;50.976;7.034;2022-09-25T00:20:39;50.30;;;33.55;;
30458;SDS011;17254;50.976;7.034;2022-09-25T00:21:12;60.15;;;36.47;;
30458;SDS011;17254;50.976;7.034;2022-09-25T00:21:44;49.88;;;34.03;;
30458;SDS011;17254;50.976;7.034;2022-09-25T00:22:18;60.30;;;36.95;;
30458;SDS011;17254;50.976;7.034;2022-09-25T00:22:50;54.78;;;35.92;;
30458;SDS011;17254;50.976;7.034;2022-09-25T00:23:24;54.67;;;37.10;;
30458;SDS011;17254;50.976;7.034;2022-09-25T00:23:55;51.25;;;35.42;;
30458;SDS011;17254;50.976;7.034;2022-09-25T00:24:29;54.97;;;35.88;;
30458;SDS011;17254;50.976;7.034;2022-09-25T00:25:01;60.03;;;37.05;;
30458;SDS011;17254;50.976;7.034;2022-09-25T00:25:32;51.50;;;34.30;;
30458;SDS011;17254;50.976;7.034;2022-09-25T00:26:04;55.85;;;36.15;;
30458;SDS011;17254;50.976;7.034;2022-09-25T00:26:37;58.22;;;35.40;;
30458;SDS011;17254;50.976;7.034;2022-09-25T00:27:10;46.60;;;33.90;;
30458;SDS011;17254;50.976;7.034;2022-09-25T00:27:43;51.55;;;36.55;;
30458;SDS011;17254;50.976;7.034;2022-09-25T00:28:14;57.28;;;36.47;;
30458;SDS011;17254;50.976;7.034;2022-09-25T00:28:45;53.95;;;35.60;;
30458;SDS011;17254;50.976;7.034;2022-09-25T00:29:17;54.70;;;34.00;;
30458;SDS011;17254;50.976;7.034;2022-09-25T00:29:50;53.10;;;36.70;;
30458;SDS011;17254;50.976;7.034;2022-09-25T00:30:22;51.28;;;34.83;;
30458;SDS011;17254;50.976;7.034;2022-09-25T00:30:53;46.97;;;33.53;;
30458;SDS011;17254;50.976;7.034;2022-09-25T00:31:24;55.50;;;35.90;;
30458;SDS011;17254;50.976;7.034;2022-09-25T00:31:57;51.42;;;36.13;;
30458;SDS011;17254;50.976;7.034;2022-09-25T00:32:28;54.35;;;36.40;;
30458;SDS011;17254;50.976;7.034;2022-09-25T00:32:58;51.03;;;35.67;;
30458;SDS011;17254;50.976;7.034;2022-09-25T00:33:30;59.50;;;37.75;;
30458;SDS011;17254;50.976;7.034;2022-09-25T00:34:03;54.97;;;37.90;;
30458;SDS011;17254;50.976;7.034;2022-09-25T00:34:35;54.67;;;34.80;;
30458;SDS011;17254;50.976;7.034;2022-09-25T00:35:07;58.13;;;37.33;;
30458;SDS011;17254;50.976;7.034;2022-09-25T00:35:38;54.42;;;36.78;;
30458;SDS011;17254;50.976;7.034;2022-09-25T00:36:09;55.70;;;36.50;;
30458;SDS011;17254;50.976;7.034;2022-09-25T00:36:41;53.63;;;35.80;;
30458;SDS011;17254;50.976;7.034;2022-09-25T00:37:12;59.55;;;36.88;;
30458;SDS011;17254;50.976;7.034;2022-09-25T00:37:44;55.35;;;36.13;;
30458;SDS011;17254;50.976;7.034;2022-09-25T00:38:15;56.25;;;36.90;;
30458;SDS011;17254;50.976;7.034;2022-09-25T00:38:47;50.05;;;36.00;;
30458;SDS011;17254;50.976;7.034;2022-09-25T00:39:19;54.17;;;37.00;;
30458;SDS011;17254;50.976;7.034;2022-09-25T00:39:51;60.10;;;37.88;;
30458;SDS011;17254;50.976;7.034;2022-09-25T00:40:22;57.88;;;38.78;;
30458;SDS011;17254;50.976;7.034;2022-09-25T00:40:54;61.47;;;37.88;;
30458;SDS011;17254;50.976;7.034;2022-09-25T00:41:25;54.10;;;36.97;;
30458;SDS011;17254;50.976;7.034;2022-09-25T00:42:01;61.20;;;37.78;;
30458;SDS011;17254;50.976;7.034;2022-09-25T00:42:32;53.47;;;36.40;;
30458;SDS011;17254;50.976;7.034;2022-09-25T00:43:08;58.85;;;38.15;;
30458;SDS011;17254;50.976;7.034;2022-09-25T00:43:43;58.65;;;38.15;;
30458;SDS011;17254;50.976;7.034;2022-09-25T00:45:27;56.33;;;38.83;;
30458;SDS011;17254;50.976;7.034;2022-09-25T00:45:59;63.05;;;38.97;;
30458;SDS011;17254;50.976;7.034;2022-09-25T00:46:32;55.22;;;38.17;;
30458;SDS011;17254;50.976;7.034;2022-09-25T00:47:06;58.63;;;39.47;;
30458;SDS011;17254;50.976;7.034;2022-09-25T00:47:43;51.35;;;36.95;;
30458;SDS011;17254;50.976;7.034;2022-09-25T00:48:50;64.75;;;37.55;;
30458;SDS011;17254;50.976;7.034;2022-09-25T00:49:24;58.65;;;39.10;;
30458;SDS011;17254;50.976;7.034;2022-09-25T00:50:03;52.53;;;36.67;;
30458;SDS011;17254;50.976;7.034;2022-09-25T00:50:43;60.13;;;40.20;;
30458;SDS011;17254;50.976;7.034;2022-09-25T00:51:21;55.50;;;39.00;;
30458;SDS011;17254;50.976;7.034;2022-09-25T00:52:00;57.75;;;37.30;;
30458;SDS011;17254;50.976;7.034;2022-09-25T00:52:34;59.00;;;38.85;;
30458;SDS011;17254;50.976;7.034;2022-09-25T00:53:07;57.40;;;38.25;;
30458;SDS011;17254;50.976;7.034;2022-09-25T00:53:41;61.50;;;40.58;;
30458;SDS011;17254;50.976;7.034;2022-09-25T00:54:14;59.47;;;39.90;;
30458;SDS011;17254;50.976;7.034;2022-09-25T00:54:50;64.28;;;41.85;;
30458;SDS011;17254;50.976;7.034;2022-09-25T00:55:23;61.20;;;39.90;;
30458;SDS011;17254;50.976;7.034;2022-09-25T00:55:54;57.55;;;40.35;;
30458;SDS011;17254;50.976;7.034;2022-09-25T00:56:27;61.10;;;36.47;;
30458;SDS011;17254;50.976;7.034;2022-09-25T00:57:04;63.05;;;38.17;;
30458;SDS011;17254;50.976;7.034;2022-09-25T00:57:37;59.60;;;38.97;;
30458;SDS011;17254;50.976;7.034;2022-09-25T00:58:10;60.25;;;39.33;;
30458;SDS011;17254;50.976;7.034;2022-09-25T00:58:43;61.22;;;37.42;;
30458;SDS011;17254;50.976;7.034;2022-09-25T00:59:15;60.67;;;39.38;;
30458;SDS011;17254;50.976;7.034;2022-09-25T00:59:49;56.67;;;37.22;;
30458;SDS011;17254;50.976;7.034;2022-09-25T01:00:23;55.72;;;38.47;;
30458;SDS011;17254;50.976;7.034;2022-09-25T01:00:54;62.00;;;38.45;;
30458;SDS011;17254;50.976;7.034;2022-09-25T01:01:26;61.83;;;40.35;;
30458;SDS011;17254;50.976;7.034;2022-09-25T01:01:57;58.17;;;39.67;;
30458;SDS011;17254;50.976;7.034;2022-09-25T01:02:29;57.53;;;36.42;;
30458;SDS011;17254;50.976;7.034;2022-09-25T01:03:04;58.70;;;40.25;;
30458;SDS011;17254;50.976;7.034;2022-09-25T01:03:38;62.88;;;40.88;;
30458;SDS011;17254;50.976;7.034;2022-09-25T01:04:11;59.88;;;38.60;;
30458;SDS011;17254;50.976;7.034;2022-09-25T01:04:43;62.70;;;40.53;;
30458;SDS011;17254;50.976;7.034;2022-09-25T01:05:17;64.60;;;41.22;;
30458;SDS011;17254;50.976;7.034;2022-09-25T01:05:50;64.30;;;40.75;;
30458;SDS011;17254;50.976;7.034;2022-09-25T01:06:24;61.20;;;39.53;;
30458;SDS011;17254;50.976;7.034;2022-09-25T01:06:57;57.40;;;40.40;;
30458;SDS011;17254;50.976;7.034;2022-09-25T01:07:29;61.45;;;40.67;;
30458;SDS011;17254;50.976;7.034;2022-09-25T01:08:02;69.35;;;42.47;;
30458;SDS011;17254;50.976;7.034;2022-09-25T01:08:36;62.92;;;40.42;;
30458;SDS011;17254;50.976;7.034;2022-09-25T01:09:08;64.03;;;43.03;;
30458;SDS011;17254;50.976;7.034;2022-09-25T01:09:40;69.45;;;43.00;;
30458;SDS011;17254;50.976;7.034;2022-09-25T01:10:12;66.05;;;42.45;;
30458;SDS011;17254;50.976;7.034;2022-09-25T01:10:45;66.30;;;42.70;;
30458;SDS011;17254;50.976;7.034;2022-09-25T01:11:16;63.30;;;41.30;;
30458;SDS011;17254;50.976;7.034;2022-09-25T01:11:48;69.00;;;42.58;;
30458;SDS011;17254;50.976;7.034;2022-09-25T01:12:19;67.43;;;41.75;;
30458;SDS011;17254;50.976;7.034;2022-09-25T01:12:50;69.53;;;44.58;;
30458;SDS011;17254;50.976;7.034;2022-09-25T01:13:22;64.38;;;42.60;;
30458;SDS011;17254;50.976;7.034;2022-09-25T01:13:54;67.68;;;43.10;;
30458;SDS011;17254;50.976;7.034;2022-09-25T01:14:29;67.95;;;40.97;;
30458;SDS011;17254;50.976;7.034;2022-09-25T01:15:03;72.72;;;43.83;;
30458;SDS011;17254;50.976;7.034;2022-09-25T01:15:37;62.20;;;42.90;;
30458;SDS011;17254;50.976;7.034;2022-09-25T01:16:14;64.82;;;42.90;;
30458;SDS011;17254;50.976;7.034;2022-09-25T01:16:51;67.78;;;43.95;;
30458;SDS011;17254;50.976;7.034;2022-09-25T01:17:27;66.05;;;42.00;;
30458;SDS011;17254;50.976;7.034;2022-09-25T01:18:07;62.35;;;42.70;;
30458;SDS011;17254;50.976;7.034;2022-09-25T01:18:50;71.68;;;43.88;;
30458;SDS011;17254;50.976;7.034;2022-09-25T01:19:29;68.97;;;44.47;;
30458;SDS011;17254;50.976;7.034;2022-09-25T01:20:13;66.63;;;44.72;;
30458;SDS011;17254;50.976;7.034;2022-09-25T01:20:59;71.20;;;44.83;;
30458;SDS011;17254;50.976;7.034;2022-09-25T01:21:40;67.05;;;43.83;;
30458;SDS011;17254;50.976;7.034;2022-09-25T01:22:15;75.65;;;45.17;;
30458;SDS011;17254;50.976;7.034;2022-09-25T01:22:57;73.65;;;43.45;;
30458;SDS011;17254;50.976;7.034;2022-09-25T01:23:46;67.35;;;43.53;;
30458;SDS011;17254;50.976;7.034;2022-09-25T01:24:41;73.90;;;46.47;;
30458;SDS011;17254;50.976;7.034;2022-09-25T01:25:23;70.70;;;43.75;;
30458;SDS011;17254;50.976;7.034;2022-09-25T01:26:09;70.78;;;44.55;;
30458;SDS011;17254;50.976;7.034;2022-09-25T01:27:03;72.57;;;45.15;;
30458;SDS011;17254;50.976;7.034;2022-09-25T01:27:50;67.88;;;44.25;;
30458;SDS011;17254;50.976;7.034;2022-09-25T01:28:58;76.90;;;46.40;;
30458;SDS011;17254;50.976;7.034;2022-09-25T01:29:36;72.05;;;43.70;;
30458;SDS011;17254;50.976;7.034;2022-09-25T01:30:13;74.32;;;43.60;;
30458;SDS011;17254;50.976;7.034;2022-09-25T01:30:49;71.50;;;46.08;;
30458;SDS011;17254;50.976;7.034;2022-09-25T01:31:26;70.25;;;46.17;;
30458;SDS011;17254;50.976;7.034;2022-09-25T01:32:04;72.35;;;45.80;;
30458;SDS011;17254;50.976;7.034;2022-09-25T01:32:45;70.90;;;44.08;;
30458;SDS011;17254;50.976;7.034;2022-09-25T01:33:26;67.68;;;42.50;;
30458;SDS011;17254;50.976;7.034;2022-09-25T01:34:04;69.53;;;43.78;;
30458;SDS011;17254;50.976;7.034;2022-09-25T01:34:45;71.57;;;44.08;;
30458;SDS011;17254;50.976;7.034;2022-09-25T01:35:26;68.40;;;42.85;;
30458;SDS011;17254;50.976;7.034;2022-09-25T01:36:08;76.97;;;46.08;;
30458;SDS011;17254;50.976;7.034;2022-09-25T01:36:45;69.97;;;44.92;;
30458;SDS011;17254;50.976;7.034;2022-09-25T01:37:20;65.63;;;42.53;;
30458;SDS011;17254;50.976;7.034;2022-09-25T01:37:56;73.78;;;43.28;;
30458;SDS011;17254;50.976;7.034;2022-09-25T01:38:31;71.80;;;45.15;;
30458;SDS011;17254;50.976;7.034;2022-09-25T01:39:08;68.38;;;43.90;;
30458;SDS011;17254;50.976;7.034;2022-09-25T01:39:49;76.20;;;44.72;;
30458;SDS011;17254;50.976;7.034;2022-09-25T01:40:28;71.07;;;43.97;;
30458;SDS011;17254;50.976;7.034;2022-09-25T01:41:04;66.20;;;42.38;;
30458;SDS011;17254;50.976;7.034;2022-09-25T01:41:42;75.57;;;44.42;;
30458;SDS011;17254;50.976;7.034;2022-09-25T01:42:18;72.47;;;46.15;;
30458;SDS011;17254;50.976;7.034;2022-09-25T01:42:54;76.93;;;44.25;;
30458;SDS011;17254;50.976;7.034;2022-09-25T01:43:33;66.95;;;43.30;;
30458;SDS011;17254;50.976;7.034;2022-09-25T01:44:09;75.30;;;45.35;;
30458;SDS011;17254;50.976;7.034;2022-09-25T01:44:44;68.95;;;44.00;;
30458;SDS011;17254;50.976;7.034;2022-09-25T01:45:22;77.28;;;46.22;;
30458;SDS011;17254;50.976;7.034;2022-09-25T01:45:58;67.57;;;44.03;;
30458;SDS011;17254;50.976;7.034;2022-09-25T01:46:33;68.00;;;44.78;;
30458;SDS011;17254;50.976;7.034;2022-09-25T01:47:08;71.75;;;45.08;;
30458;SDS011;17254;50.976;7.034;2022-09-25T01:47:42;77.50;;;46.63;;
30458;SDS011;17254;50.976;7.034;2022-09-25T01:48:19;71.88;;;46.22;;
30458;SDS011;17254;50.976;7.034;2022-09-25T01:48:54;70.85;;;44.33;;
30458;SDS011;17254;50.976;7.034;2022-09-25T01:49:30;76.40;;;45.85;;
30458;SDS011;17254;50.976;7.034;2022-09-25T01:50:06;71.95;;;45.75;;
30458;SDS011;17254;50.976;7.034;2022-09-25T01:50:42;72.63;;;45.55;;
30458;SDS011;17254;50.976;7.034;2022-09-25T01:51:17;75.13;;;45.20;;
30458;SDS011;17254;50.976;7.034;2022-09-25T01:51:52;69.28;;;44.08;;
30458;SDS011;17254;50.976;7.034;2022-09-25T01:52:26;71.78;;;46.08;;
30458;SDS011;17254;50.976;7.034;2022-09-25T01:53:03;69.00;;;44.33;;
30458;SDS011;17254;50.976;7.034;2022-09-25T01:53:42;69.15;;;44.40;;
30458;SDS011;17254;50.976;7.034;2022-09-25T01:54:16;75.72;;;45.53;;
30458;SDS011;17254;50.976;7.034;2022-09-25T01:54:52;70.00;;;44.70;;
30458;SDS011;17254;50.976;7.034;2022-09-25T01:55:30;66.72;;;40.88;;
30458;SDS011;17254;50.976;7.034;2022-09-25T01:56:06;70.75;;;44.60;;
30458;SDS011;17254;50.976;7.034;2022-09-25T01:56:43;64.22;;;43.03;;
30458;SDS011;17254;50.976;7.034;2022-09-25T01:57:21;68.18;;;43.88;;
30458;SDS011;17254;50.976;7.034;2022-09-25T01:57:58;68.72;;;44.33;;
30458;SDS011;17254;50.976;7.034;2022-09-25T01:58:37;68.25;;;45.03;;
30458;SDS011;17254;50.976;7.034;2022-09-25T01:59:15;64.82;;;43.65;;
30458;SDS011;17254;50.976;7.034;2022-09-25T01:59:51;67.53;;;44.38;;
30458;SDS011;17254;50.976;7.034;2022-09-25T02:00:27;69.80;;;42.72;;
30458;SDS011;17254;50.976;7.034;2022-09-25T02:00:59;65.53;;;44.42;;
30458;SDS011;17254;50.976;7.034;2022-09-25T02:01:36;62.92;;;42.08;;
30458;SDS011;17254;50.976;7.034;2022-09-25T02:02:11;70.72;;;43.65;;
30458;SDS011;17254;50.976;7.034;2022-09-25T02:02:46;69.88;;;44.75;;
30458;SDS011;17254;50.976;7.034;2022-09-25T02:03:25;70.22;;;44.25;;
30458;SDS011;17254;50.976;7.034;2022-09-25T02:04:01;71.07;;;43.15;;
30458;SDS011;17254;50.976;7.034;2022-09-25T02:04:37;69.95;;;41.80;;
30458;SDS011;17254;50.976;7.034;2022-09-25T02:05:12;71.65;;;45.35;;
30458;SDS011;17254;50.976;7.034;2022-09-25T02:05:49;67.47;;;43.15;;
30458;SDS011;17254;50.976;7.034;2022-09-25T02:06:23;71.72;;;45.55;;
30458;SDS011;17254;50.976;7.034;2022-09-25T02:06:56;71.70;;;43.03;;
30458;SDS011;17254;50.976;7.034;2022-09-25T02:07:36;71.15;;;45.45;;
30458;SDS011;17254;50.976;7.034;2022-09-25T02:08:13;75.25;;;44.72;;
30458;SDS011;17254;50.976;7.034;2022-09-25T02:08:50;68.88;;;45.38;;
30458;SDS011;17254;50.976;7.034;2022-09-25T02:09:26;76.00;;;47.80;;
30458;SDS011;17254;50.976;7.034;2022-09-25T02:10:02;76.95;;;46.88;;
30458;SDS011;17254;50.976;7.034;2022-09-25T02:10:38;67.28;;;44.55;;
30458;SDS011;17254;50.976;7.034;2022-09-25T02:11:15;72.10;;;46.83;;
30458;SDS011;17254;50.976;7.034;2022-09-25T02:11:47;71.53;;;45.45;;
30458;SDS011;17254;50.976;7.034;2022-09-25T02:12:21;71.15;;;44.92;;
30458;SDS011;17254;50.976;7.034;2022-09-25T02:12:59;72.05;;;43.13;;
30458;SDS011;17254;50.976;7.034;2022-09-25T02:13:36;68.72;;;44.13;;
30458;SDS011;17254;50.976;7.034;2022-09-25T02:14:10;69.63;;;46.67;;
30458;SDS011;17254;50.976;7.034;2022-09-25T02:14:48;67.13;;;43.60;;
30458;SDS011;17254;50.976;7.034;2022-09-25T02:15:22;73.60;;;44.47;;
30458;SDS011;17254;50.976;7.034;2022-09-25T02:15:58;77.07;;;46.35;;
30458;SDS011;17254;50.976;7.034;2022-09-25T02:16:36;74.50;;;46.70;;
30458;SDS011;17254;50.976;7.034;2022-09-25T02:17:13;70.43;;;45.03;;
30458;SDS011;17254;50.976;7.034;2022-09-25T02:18:12;73.18;;;44.70;;
30458;SDS011;17254;50.976;7.034;2022-09-25T02:19:04;74.15;;;45.60;;
30458;SDS011;17254;50.976;7.034;2022-09-25T02:19:53;76.70;;;46.90;;
30458;SDS011;17254;50.976;7.034;2022-09-25T02:20:43;84.13;;;46.35;;
30458;SDS011;17254;50.976;7.034;2022-09-25T02:21:21;75.30;;;46.25;;
30458;SDS011;17254;50.976;7.034;2022-09-25T02:22:00;74.68;;;46.58;;
30458;SDS011;17254;50.976;7.034;2022-09-25T02:22:37;66.65;;;43.85;;
30458;SDS011;17254;50.976;7.034;2022-09-25T02:23:09;76.68;;;47.25;;
30458;SDS011;17254;50.976;7.034;2022-09-25T02:23:48;71.53;;;45.30;;
30458;SDS011;17254;50.976;7.034;2022-09-25T02:24:23;72.45;;;46.83;;
30458;SDS011;17254;50.976;7.034;2022-09-25T02:24:59;72.60;;;46.33;;
30458;SDS011;17254;50.976;7.034;2022-09-25T02:25:36;76.18;;;46.28;;
30458;SDS011;17254;50.976;7.034;2022-09-25T02:26:12;74.53;;;47.03;;
30458;SDS011;17254;50.976;7.034;2022-09-25T02:26:51;69.63;;;45.67;;
30458;SDS011;17254;50.976;7.034;2022-09-25T02:27:22;78.05;;;44.80;;
30458;SDS011;17254;50.976;7.034;2022-09-25T02:27:56;74.97;;;46.55;;
30458;SDS011;17254;50.976;7.034;2022-09-25T02:28:27;69.10;;;44.28;;
30458;SDS011;17254;50.976;7.034;2022-09-25T02:28:59;66.25;;;42.60;;
30458;SDS011;17254;50.976;7.034;2022-09-25T02:29:31;71.88;;;44.38;;
30458;SDS011;17254;50.976;7.034;2022-09-25T02:30:05;76.15;;;43.42;;
30458;SDS011;17254;50.976;7.034;2022-09-25T02:30:36;74.57;;;44.00;;
30458;SDS011;17254;50.976;7.034;2022-09-25T02:31:09;76.40;;;43.65;;
30458;SDS011;17254;50.976;7.034;2022-09-25T02:31:42;66.50;;;44.63;;
30458;SDS011;17254;50.976;7.034;2022-09-25T02:32:18;66.65;;;43.15;;
30458;SDS011;17254;50.976;7.034;2022-09-25T02:32:52;66.25;;;44.22;;
30458;SDS011;17254;50.976;7.034;2022-09-25T02:33:23;70.22;;;44.70;;
30458;SDS011;17254;50.976;7.034;2022-09-25T02:33:55;71.50;;;44.50;;
30458;SDS011;17254;50.976;7.034;2022-09-25T02:34:26;67.07;;;44.03;;
30458;SDS011;17254;50.976;7.034;2022-09-25T02:34:59;69.00;;;44.58;;
30458;SDS011;17254;50.976;7.034;2022-09-25T02:35:31;62.75;;;42.72;;
30458;SDS011;17254;50.976;7.034;2022-09-25T02:36:03;65.40;;;43.47;;
30458;SDS011;17254;50.976;7.034;2022-09-25T02:36:35;76.45;;;42.67;;
30458;SDS011;17254;50.976;7.034;2022-09-25T02:37:08;83.18;;;45.15;;
30458;SDS011;17254;50.976;7.034;2022-09-25T02:37:40;77.68;;;44.00;;
30458;SDS011;17254;50.976;7.034;2022-09-25T02:38:12;57.83;;;40.80;;
30458;SDS011;17254;50.976;7.034;2022-09-25T02:38:45;71.97;;;43.97;;
30458;SDS011;17254;50.976;7.034;2022-09-25T02:39:19;71.68;;;43.00;;
30458;SDS011;17254;50.976;7.034;2022-09-25T02:39:53;65.90;;;42.55;;
30458;SDS011;17254;50.976;7.034;2022-09-25T02:40:28;63.67;;;40.55;;
30458;SDS011;17254;50.976;7.034;2022-09-25T02:41:06;72.18;;;43.10;;
30458;SDS011;17254;50.976;7.034;2022-09-25T02:41:57;70.88;;;43.88;;
30458;SDS011;17254;50.976;7.034;2022-09-25T02:42:43;67.40;;;42.00;;
30458;SDS011;17254;50.976;7.034;2022-09-25T02:43:23;71.82;;;41.38;;
30458;SDS011;17254;50.976;7.034;2022-09-25T02:44:04;63.33;;;40.42;;
30458;SDS011;17254;50.976;7.034;2022-09-25T02:44:48;66.95;;;41.10;;
30458;SDS011;17254;50.976;7.034;2022-09-25T02:45:35;79.07;;;44.63;;
30458;SDS011;17254;50.976;7.034;2022-09-25T02:46:12;69.45;;;41.50;;
30458;SDS011;17254;50.976;7.034;2022-09-25T02:46:52;66.85;;;42.33;;
30458;SDS011;17254;50.976;7.034;2022-09-25T02:47:33;79.88;;;42.42;;
30458;SDS011;17254;50.976;7.034;2022-09-25T02:48:10;71.70;;;41.65;;
30458;SDS011;17254;50.976;7.034;2022-09-25T02:48:48;65.78;;;40.78;;
30458;SDS011;17254;50.976;7.034;2022-09-25T02:49:24;69.03;;;41.53;;
30458;SDS011;17254;50.976;7.034;2022-09-25T02:50:06;69.45;;;41.67;;
30458;SDS011;17254;50.976;7.034;2022-09-25T02:50:45;69.90;;;41.17;;
30458;SDS011;17254;50.976;7.034;2022-09-25T02:51:26;65.85;;;40.45;;
30458;SDS011;17254;50.976;7.034;2022-09-25T02:52:03;69.47;;;39.67;;
30458;SDS011;17254;50.976;7.034;2022-09-25T02:52:40;75.18;;;41.50;;
30458;SDS011;17254;50.976;7.034;2022-09-25T02:53:17;62.42;;;40.30;;
30458;SDS011;17254;50.976;7.034;2022-09-25T02:53:54;66.90;;;42.33;;
30458;SDS011;17254;50.976;7.034;2022-09-25T02:54:37;67.93;;;39.83;;
30458;SDS011;17254;50.976;7.034;2022-09-25T02:55:14;57.67;;;38.13;;
30458;SDS011;17254;50.976;7.034;2022-09-25T02:55:50;65.35;;;39.13;;
30458;SDS011;17254;50.976;7.034;2022-09-25T02:56:27;64.22;;;39.28;;
30458;SDS011;17254;50.976;7.034;2022-09-25T02:57:03;65.53;;;38.40;;
30458;SDS011;17254;50.976;7.034;2022-09-25T02:57:40;63.15;;;37.60;;
30458;SDS011;17254;50.976;7.034;2022-09-25T02:58:15;60.67;;;36.10;;
30458;SDS011;17254;50.976;7.034;2022-09-25T02:58:53;55.95;;;35.83;;
30458;SDS011;17254;50.976;7.034;2022-09-25T02:59:27;58.35;;;35.45;;
30458;SDS011;17254;50.976;7.034;2022-09-25T03:00:04;65.18;;;35.83;;
30458;SDS011;17254;50.976;7.034;2022-09-25T03:00:39;59.38;;;34.20;;
30458;SDS011;17254;50.976;7.034;2022-09-25T03:01:13;63.03;;;35.92;;
30458;SDS011;17254;50.976;7.034;2022-09-25T03:01:47;62.10;;;33.63;;
30458;SDS011;17254;50.976;7.034;2022-09-25T03:02:19;54.75;;;34.30;;
30458;SDS011;17254;50.976;7.034;2022-09-25T03:02:52;60.58;;;34.65;;
30458;SDS011;17254;50.976;7.034;2022-09-25T03:03:25;55.08;;;34.13;;
30458;SDS011;17254;50.976;7.034;2022-09-25T03:03:58;53.30;;;33.60;;
30458;SDS011;17254;50.976;7.034;2022-09-25T03:04:30;46.53;;;33.72;;
30458;SDS011;17254;50.976;7.034;2022-09-25T03:05:06;59.00;;;32.75;;
30458;SDS011;17254;50.976;7.034;2022-09-25T03:05:40;58.20;;;32.50;;
30458;SDS011;17254;50.976;7.034;2022-09-25T03:06:11;55.00;;;31.85;;
30458;SDS011;17254;50.976;7.034;2022-09-25T03:06:43;45.42;;;28.83;;
30458;SDS011;17254;50.976;7.034;2022-09-25T03:07:16;50.20;;;28.70;;
30458;SDS011;17254;50.976;7.034;2022-09-25T03:07:48;49.05;;;28.73;;
30458;SDS011;17254;50.976;7.034;2022-09-25T03:08:39;52.97;;;26.80;;
30458;SDS011;17254;50.976;7.034;2022-09-25T03:09:14;48.00;;;26.05;;
30458;SDS011;17254;50.976;7.034;2022-09-25T03:09:50;46.10;;;25.75;;
30458;SDS011;17254;50.976;7.034;2022-09-25T03:10:23;51.25;;;26.42;;
30458;SDS011;17254;50.976;7.034;2022-09-25T03:10:57;47.88;;;27.90;;
30458;SDS011;17254;50.976;7.034;2022-09-25T03:11:28;41.15;;;22.88;;
30458;SDS011;17254;50.976;7.034;2022-09-25T03:12:00;42.67;;;24.23;;
30458;SDS011;17254;50.976;7.034;2022-09-25T03:12:34;37.05;;;23.98;;
30458;SDS011;17254;50.976;7.034;2022-09-25T03:13:12;35.58;;;23.33;;
30458;SDS011;17254;50.976;7.034;2022-09-25T03:13:44;36.75;;;22.73;;
30458;SDS011;17254;50.976;7.034;2022-09-25T03:14:16;43.17;;;21.65;;
30458;SDS011;17254;50.976;7.034;2022-09-25T03:14:47;43.75;;;20.88;;
30458;SDS011;17254;50.976;7.034;2022-09-25T03:15:18;39.42;;;20.73;;
30458;SDS011;17254;50.976;7.034;2022-09-25T03:15:55;35.22;;;22.33;;
30458;SDS011;17254;50.976;7.034;2022-09-25T03:16:30;38.25;;;19.27;;
30458;SDS011;17254;50.976;7.034;2022-09-25T03:17:08;37.25;;;20.13;;
30458;SDS011;17254;50.976;7.034;2022-09-25T03:17:42;31.23;;;18.88;;
30458;SDS011;17254;50.976;7.034;2022-09-25T03:18:13;32.70;;;18.52;;
30458;SDS011;17254;50.976;7.034;2022-09-25T03:18:46;28.75;;;19.45;;
30458;SDS011;17254;50.976;7.034;2022-09-25T03:19:17;37.33;;;18.30;;
30458;SDS011;17254;50.976;7.034;2022-09-25T03:19:48;33.88;;;19.65;;
30458;SDS011;17254;50.976;7.034;2022-09-25T03:20:23;29.15;;;18.98;;
30458;SDS011;17254;50.976;7.034;2022-09-25T03:20:54;31.73;;;18.08;;
30458;SDS011;17254;50.976;7.034;2022-09-25T03:21:24;39.83;;;18.58;;
30458;SDS011;17254;50.976;7.034;2022-09-25T03:21:56;41.85;;;18.30;;
30458;SDS011;17254;50.976;7.034;2022-09-25T03:22:27;32.65;;;17.70;;
30458;SDS011;17254;50.976;7.034;2022-09-25T03:22:58;31.25;;;17.77;;
30458;SDS011;17254;50.976;7.034;2022-09-25T03:23:30;40.22;;;16.95;;
30458;SDS011;17254;50.976;7.034;2022-09-25T03:24:01;32.55;;;16.83;;
30458;SDS011;17254;50.976;7.034;2022-09-25T03:24:32;31.00;;;15.75;;
30458;SDS011;17254;50.976;7.034;2022-09-25T03:25:04;28.90;;;16.85;;
30458;SDS011;17254;50.976;7.034;2022-09-25T03:25:35;33.75;;;18.55;;
30458;SDS011;17254;50.976;7.034;2022-09-25T03:26:07;27.88;;;16.40;;
30458;SDS011;17254;50.976;7.034;2022-09-25T03:26:38;25.98;;;15.77;;
30458;SDS011;17254;50.976;7.034;2022-09-25T03:27:10;30.77;;;18.10;;
30458;SDS011;17254;50.976;7.034;2022-09-25T03:27:41;28.30;;;16.20;;